sensor_id;sensor_type;location;lat;lon;timestamp;temperature;humidity
4615;DHT22;2320;51.362;6.946;2023-06-26T00:00:17;24.70;99.90
4615;DHT22;2320;51.362;6.946;2023-06-26T00:02:42;24.60;99.90
4615;DHT22;2320;51.362;6.946;2023-06-26T00:05:08;24.60;99.90
4615;DHT22;2320;51.362;6.946;2023-06-26T00:07:33;24.60;99.90
4615;DHT22;2320;51.362;6.946;2023-06-26T00:09:59;24.50;99.90
4615;DHT22;2320;51.362;6.946;2023-06-26T00:12:25;24.50;99.90
4615;DHT22;2320;51.362;6.946;2023-06-26T00:14:50;24.50;99.90
4615;DHT22;2320;51.362;6.946;2023-06-26T00:17:16;24.50;99.90
4615;DHT22;2320;51.362;6.946;2023-06-26T00:19:41;24.50;99.90
4615;DHT22;2320;51.362;6.946;2023-06-26T00:22:07;24.50;99.90
4615;DHT22;2320;51.362;6.946;2023-06-26T00:24:32;24.50;99.90
4615;DHT22;2320;51.362;6.946;2023-06-26T00:26:57;24.50;99.90
4615;DHT22;2320;51.362;6.946;2023-06-26T00:29:24;24.50;99.90
4615;DHT22;2320;51.362;6.946;2023-06-26T00:31:49;24.40;99.90
4615;DHT22;2320;51.362;6.946;2023-06-26T00:34:15;24.50;99.90
4615;DHT22;2320;51.362;6.946;2023-06-26T00:36:40;24.50;99.90
4615;DHT22;2320;51.362;6.946;2023-06-26T00:39:09;24.40;99.90
4615;DHT22;2320;51.362;6.946;2023-06-26T00:41:35;24.40;99.90
4615;DHT22;2320;51.362;6.946;2023-06-26T00:44:01;24.40;99.90
4615;DHT22;2320;51.362;6.946;2023-06-26T00:46:26;24.30;99.90
4615;DHT22;2320;51.362;6.946;2023-06-26T00:48:53;24.30;99.90
4615;DHT22;2320;51.362;6.946;2023-06-26T00:51:19;24.30;99.90
4615;DHT22;2320;51.362;6.946;2023-06-26T00:53:45;24.30;99.90
4615;DHT22;2320;51.362;6.946;2023-06-26T00:56:10;24.30;99.90
4615;DHT22;2320;51.362;6.946;2023-06-26T00:58:36;24.40;99.90
4615;DHT22;2320;51.362;6.946;2023-06-26T01:01:02;24.30;99.90
4615;DHT22;2320;51.362;6.946;2023-06-26T01:03:27;24.30;99.90
4615;DHT22;2320;51.362;6.946;2023-06-26T01:05:53;24.40;99.90
4615;DHT22;2320;51.362;6.946;2023-06-26T01:08:19;24.30;99.90
4615;DHT22;2320;51.362;6.946;2023-06-26T01:10:45;24.30;99.90
4615;DHT22;2320;51.362;6.946;2023-06-26T01:13:11;24.30;99.90
4615;DHT22;2320;51.362;6.946;2023-06-26T01:15:37;24.30;99.90
4615;DHT22;2320;51.362;6.946;2023-06-26T01:18:02;24.30;99.90
4615;DHT22;2320;51.362;6.946;2023-06-26T01:20:30;24.30;99.90
4615;DHT22;2320;51.362;6.946;2023-06-26T01:28:23;24.30;99.90
4615;DHT22;2320;51.362;6.946;2023-06-26T01:30:49;24.20;99.90
4615;DHT22;2320;51.362;6.946;2023-06-26T01:33:15;24.20;99.90
4615;DHT22;2320;51.362;6.946;2023-06-26T01:35:41;24.20;99.90
4615;DHT22;2320;51.362;6.946;2023-06-26T01:38:13;24.20;99.90
4615;DHT22;2320;51.362;6.946;2023-06-26T01:40:39;24.10;99.90
4615;DHT22;2320;51.362;6.946;2023-06-26T01:43:05;24.00;99.90
4615;DHT22;2320;51.362;6.946;2023-06-26T01:45:31;24.10;99.90
4615;DHT22;2320;51.362;6.946;2023-06-26T01:47:57;24.10;99.90
4615;DHT22;2320;51.362;6.946;2023-06-26T01:50:24;24.00;99.90
4615;DHT22;2320;51.362;6.946;2023-06-26T01:57:42;24.00;99.90
4615;DHT22;2320;51.362;6.946;2023-06-26T02:00:09;24.00;99.90
4615;DHT22;2320;51.362;6.946;2023-06-26T02:02:36;23.90;99.90
4615;DHT22;2320;51.362;6.946;2023-06-26T02:05:01;23.90;99.90
4615;DHT22;2320;51.362;6.946;2023-06-26T02:07:27;23.90;99.90
4615;DHT22;2320;51.362;6.946;2023-06-26T02:09:53;23.80;99.90
4615;DHT22;2320;51.362;6.946;2023-06-26T02:12:18;23.90;99.90
4615;DHT22;2320;51.362;6.946;2023-06-26T02:14:44;23.80;99.90
4615;DHT22;2320;51.362;6.946;2023-06-26T02:17:10;23.80;99.90
4615;DHT22;2320;51.362;6.946;2023-06-26T02:19:35;23.80;99.90
4615;DHT22;2320;51.362;6.946;2023-06-26T02:22:01;23.80;99.90
4615;DHT22;2320;51.362;6.946;2023-06-26T02:24:26;23.90;99.90
4615;DHT22;2320;51.362;6.946;2023-06-26T02:26:55;23.70;99.90
4615;DHT22;2320;51.362;6.946;2023-06-26T02:29:21;23.70;99.90
4615;DHT22;2320;51.362;6.946;2023-06-26T02:31:46;23.60;99.90
4615;DHT22;2320;51.362;6.946;2023-06-26T02:34:12;23.60;99.90
4615;DHT22;2320;51.362;6.946;2023-06-26T02:36:37;23.60;99.90
4615;DHT22;2320;51.362;6.946;2023-06-26T02:39:03;23.60;99.90
4615;DHT22;2320;51.362;6.946;2023-06-26T02:41:28;23.50;99.90
4615;DHT22;2320;51.362;6.946;2023-06-26T02:43:54;23.50;99.90
4615;DHT22;2320;51.362;6.946;2023-06-26T02:46:19;23.40;99.90
4615;DHT22;2320;51.362;6.946;2023-06-26T02:48:45;23.50;99.90
4615;DHT22;2320;51.362;6.946;2023-06-26T02:51:10;23.50;99.90
4615;DHT22;2320;51.362;6.946;2023-06-26T02:53:36;23.50;99.90
4615;DHT22;2320;51.362;6.946;2023-06-26T02:56:01;23.50;99.90
4615;DHT22;2320;51.362;6.946;2023-06-26T02:58:27;23.40;99.90
4615;DHT22;2320;51.362;6.946;2023-06-26T03:00:53;23.40;99.90
4615;DHT22;2320;51.362;6.946;2023-06-26T03:03:18;23.40;99.90
4615;DHT22;2320;51.362;6.946;2023-06-26T03:05:44;23.30;99.90
4615;DHT22;2320;51.362;6.946;2023-06-26T03:08:10;23.30;99.90
4615;DHT22;2320;51.362;6.946;2023-06-26T03:10:35;23.40;99.90
4615;DHT22;2320;51.362;6.946;2023-06-26T03:13:01;23.40;99.90
4615;DHT22;2320;51.362;6.946;2023-06-26T03:15:26;23.30;99.90
4615;DHT22;2320;51.362;6.946;2023-06-26T03:17:52;23.30;99.90
4615;DHT22;2320;51.362;6.946;2023-06-26T03:20:17;23.10;99.90
4615;DHT22;2320;51.362;6.946;2023-06-26T03:22:42;23.10;99.90
4615;DHT22;2320;51.362;6.946;2023-06-26T03:25:08;23.20;99.90
4615;DHT22;2320;51.362;6.946;2023-06-26T03:27:34;23.00;99.90
4615;DHT22;2320;51.362;6.946;2023-06-26T03:29:59;22.90;99.90
4615;DHT22;2320;51.362;6.946;2023-06-26T03:32:25;22.90;99.90
4615;DHT22;2320;51.362;6.946;2023-06-26T03:34:51;22.80;99.90
4615;DHT22;2320;51.362;6.946;2023-06-26T03:37:18;22.90;99.90
4615;DHT22;2320;51.362;6.946;2023-06-26T03:39:43;23.00;99.90
4615;DHT22;2320;51.362;6.946;2023-06-26T03:42:09;22.90;99.90
4615;DHT22;2320;51.362;6.946;2023-06-26T03:44:35;23.00;99.90
4615;DHT22;2320;51.362;6.946;2023-06-26T03:47:00;22.90;99.90
4615;DHT22;2320;51.362;6.946;2023-06-26T03:49:26;23.10;99.90
4615;DHT22;2320;51.362;6.946;2023-06-26T03:51:51;22.90;99.90
4615;DHT22;2320;51.362;6.946;2023-06-26T03:54:16;22.90;99.90
4615;DHT22;2320;51.362;6.946;2023-06-26T03:56:42;22.70;99.90
4615;DHT22;2320;51.362;6.946;2023-06-26T03:59:08;22.90;99.90
4615;DHT22;2320;51.362;6.946;2023-06-26T04:01:33;22.80;99.90
4615;DHT22;2320;51.362;6.946;2023-06-26T04:04:01;22.80;99.90
4615;DHT22;2320;51.362;6.946;2023-06-26T04:06:26;22.90;99.90
4615;DHT22;2320;51.362;6.946;2023-06-26T04:08:51;22.80;99.90
4615;DHT22;2320;51.362;6.946;2023-06-26T04:11:17;22.80;99.90
4615;DHT22;2320;51.362;6.946;2023-06-26T04:13:42;23.00;99.90
4615;DHT22;2320;51.362;6.946;2023-06-26T04:16:08;22.90;99.90
4615;DHT22;2320;51.362;6.946;2023-06-26T04:18:33;22.90;99.90
4615;DHT22;2320;51.362;6.946;2023-06-26T04:21:06;23.00;99.90
4615;DHT22;2320;51.362;6.946;2023-06-26T04:23:32;22.90;99.90
4615;DHT22;2320;51.362;6.946;2023-06-26T04:25:58;23.00;99.90
4615;DHT22;2320;51.362;6.946;2023-06-26T04:28:23;23.10;99.90
4615;DHT22;2320;51.362;6.946;2023-06-26T04:30:49;23.20;99.90
4615;DHT22;2320;51.362;6.946;2023-06-26T04:33:14;23.30;99.90
4615;DHT22;2320;51.362;6.946;2023-06-26T04:35:40;23.40;99.90
4615;DHT22;2320;51.362;6.946;2023-06-26T04:38:06;23.50;99.90
4615;DHT22;2320;51.362;6.946;2023-06-26T04:40:31;23.60;99.90
4615;DHT22;2320;51.362;6.946;2023-06-26T04:42:57;23.60;99.90
4615;DHT22;2320;51.362;6.946;2023-06-26T04:45:22;23.40;99.90
4615;DHT22;2320;51.362;6.946;2023-06-26T04:47:48;23.40;99.90
4615;DHT22;2320;51.362;6.946;2023-06-26T04:50:13;23.40;99.90
4615;DHT22;2320;51.362;6.946;2023-06-26T04:52:39;23.60;99.90
4615;DHT22;2320;51.362;6.946;2023-06-26T04:55:04;23.70;99.90
4615;DHT22;2320;51.362;6.946;2023-06-26T04:57:30;24.30;99.90
4615;DHT22;2320;51.362;6.946;2023-06-26T04:59:55;25.10;99.90
4615;DHT22;2320;51.362;6.946;2023-06-26T05:02:21;25.80;99.90
4615;DHT22;2320;51.362;6.946;2023-06-26T05:04:46;26.10;99.90
4615;DHT22;2320;51.362;6.946;2023-06-26T05:07:13;26.70;99.90
4615;DHT22;2320;51.362;6.946;2023-06-26T05:09:39;27.10;99.90
4615;DHT22;2320;51.362;6.946;2023-06-26T05:12:04;27.00;99.90
4615;DHT22;2320;51.362;6.946;2023-06-26T05:14:30;27.40;99.90
4615;DHT22;2320;51.362;6.946;2023-06-26T05:16:55;27.90;99.90
4615;DHT22;2320;51.362;6.946;2023-06-26T05:19:21;27.70;99.90
4615;DHT22;2320;51.362;6.946;2023-06-26T05:21:46;28.20;99.90
4615;DHT22;2320;51.362;6.946;2023-06-26T05:24:13;28.50;99.90
4615;DHT22;2320;51.362;6.946;2023-06-26T05:26:38;29.00;99.90
4615;DHT22;2320;51.362;6.946;2023-06-26T05:29:04;29.00;99.90
4615;DHT22;2320;51.362;6.946;2023-06-26T05:31:30;29.00;99.90
4615;DHT22;2320;51.362;6.946;2023-06-26T05:33:57;29.10;99.90
4615;DHT22;2320;51.362;6.946;2023-06-26T05:36:23;28.20;99.90
4615;DHT22;2320;51.362;6.946;2023-06-26T05:38:49;27.30;99.90
4615;DHT22;2320;51.362;6.946;2023-06-26T05:41:15;26.70;99.90
4615;DHT22;2320;51.362;6.946;2023-06-26T05:43:41;25.80;99.90
4615;DHT22;2320;51.362;6.946;2023-06-26T05:46:06;25.60;99.90
4615;DHT22;2320;51.362;6.946;2023-06-26T05:48:32;25.10;99.90
4615;DHT22;2320;51.362;6.946;2023-06-26T05:50:57;25.20;99.90
4615;DHT22;2320;51.362;6.946;2023-06-26T05:53:23;25.10;99.90
4615;DHT22;2320;51.362;6.946;2023-06-26T05:55:49;25.60;99.90
4615;DHT22;2320;51.362;6.946;2023-06-26T05:58:14;26.30;99.90
4615;DHT22;2320;51.362;6.946;2023-06-26T06:00:41;27.30;99.90
4615;DHT22;2320;51.362;6.946;2023-06-26T06:03:09;28.00;99.90
4615;DHT22;2320;51.362;6.946;2023-06-26T06:05:35;28.80;99.90
4615;DHT22;2320;51.362;6.946;2023-06-26T06:08:00;29.10;99.90
4615;DHT22;2320;51.362;6.946;2023-06-26T06:10:26;29.60;99.90
4615;DHT22;2320;51.362;6.946;2023-06-26T06:12:51;29.90;99.90
4615;DHT22;2320;51.362;6.946;2023-06-26T06:15:17;29.90;99.90
4615;DHT22;2320;51.362;6.946;2023-06-26T06:17:43;29.50;99.90
4615;DHT22;2320;51.362;6.946;2023-06-26T06:20:08;29.20;99.90
4615;DHT22;2320;51.362;6.946;2023-06-26T06:22:34;29.10;99.90
4615;DHT22;2320;51.362;6.946;2023-06-26T06:24:59;29.70;99.90
4615;DHT22;2320;51.362;6.946;2023-06-26T06:27:26;29.90;99.90
4615;DHT22;2320;51.362;6.946;2023-06-26T06:29:51;29.80;99.90
4615;DHT22;2320;51.362;6.946;2023-06-26T06:32:17;29.50;99.90
4615;DHT22;2320;51.362;6.946;2023-06-26T06:34:43;29.20;99.90
4615;DHT22;2320;51.362;6.946;2023-06-26T06:37:08;28.60;99.90
4615;DHT22;2320;51.362;6.946;2023-06-26T06:39:34;27.90;99.90
4615;DHT22;2320;51.362;6.946;2023-06-26T06:41:59;27.30;99.90
4615;DHT22;2320;51.362;6.946;2023-06-26T06:44:24;26.90;99.90
4615;DHT22;2320;51.362;6.946;2023-06-26T06:46:50;27.10;99.90
4615;DHT22;2320;51.362;6.946;2023-06-26T06:49:15;27.90;99.90
4615;DHT22;2320;51.362;6.946;2023-06-26T06:51:41;28.50;99.90
4615;DHT22;2320;51.362;6.946;2023-06-26T06:54:06;29.30;99.90
4615;DHT22;2320;51.362;6.946;2023-06-26T06:56:32;29.90;99.90
4615;DHT22;2320;51.362;6.946;2023-06-26T06:58:57;30.50;99.90
4615;DHT22;2320;51.362;6.946;2023-06-26T07:01:23;30.80;99.90
4615;DHT22;2320;51.362;6.946;2023-06-26T07:03:48;30.60;99.90
4615;DHT22;2320;51.362;6.946;2023-06-26T07:06:14;29.40;99.90
4615;DHT22;2320;51.362;6.946;2023-06-26T07:08:39;28.60;99.90
4615;DHT22;2320;51.362;6.946;2023-06-26T07:11:05;28.50;99.90
4615;DHT22;2320;51.362;6.946;2023-06-26T07:13:30;28.20;99.90
4615;DHT22;2320;51.362;6.946;2023-06-26T07:15:56;28.00;99.90
4615;DHT22;2320;51.362;6.946;2023-06-26T07:18:21;28.10;99.90
4615;DHT22;2320;51.362;6.946;2023-06-26T07:20:47;28.00;99.90
4615;DHT22;2320;51.362;6.946;2023-06-26T07:23:12;28.90;99.90
4615;DHT22;2320;51.362;6.946;2023-06-26T07:25:38;29.40;99.90
4615;DHT22;2320;51.362;6.946;2023-06-26T07:28:05;29.70;99.90
4615;DHT22;2320;51.362;6.946;2023-06-26T07:30:34;29.30;99.90
4615;DHT22;2320;51.362;6.946;2023-06-26T07:33:00;29.40;99.90
4615;DHT22;2320;51.362;6.946;2023-06-26T07:35:25;29.70;99.90
4615;DHT22;2320;51.362;6.946;2023-06-26T07:37:52;29.50;99.90
4615;DHT22;2320;51.362;6.946;2023-06-26T07:40:18;29.30;99.90
4615;DHT22;2320;51.362;6.946;2023-06-26T07:42:43;30.30;99.90
4615;DHT22;2320;51.362;6.946;2023-06-26T07:45:09;31.10;99.90
4615;DHT22;2320;51.362;6.946;2023-06-26T07:47:37;31.80;99.90
4615;DHT22;2320;51.362;6.946;2023-06-26T07:50:03;32.40;99.90
4615;DHT22;2320;51.362;6.946;2023-06-26T07:52:28;32.50;99.90
4615;DHT22;2320;51.362;6.946;2023-06-26T07:54:55;32.30;99.90
4615;DHT22;2320;51.362;6.946;2023-06-26T07:57:21;32.30;99.90
4615;DHT22;2320;51.362;6.946;2023-06-26T07:59:46;32.00;99.90
4615;DHT22;2320;51.362;6.946;2023-06-26T08:02:12;32.00;99.90
4615;DHT22;2320;51.362;6.946;2023-06-26T08:04:37;31.50;99.90
4615;DHT22;2320;51.362;6.946;2023-06-26T08:07:03;31.30;99.90
4615;DHT22;2320;51.362;6.946;2023-06-26T08:09:29;31.30;99.90
4615;DHT22;2320;51.362;6.946;2023-06-26T08:11:55;31.80;99.90
4615;DHT22;2320;51.362;6.946;2023-06-26T08:14:20;31.90;99.90
4615;DHT22;2320;51.362;6.946;2023-06-26T08:16:46;31.90;99.90
4615;DHT22;2320;51.362;6.946;2023-06-26T08:19:12;32.00;99.90
4615;DHT22;2320;51.362;6.946;2023-06-26T08:21:38;32.70;99.90
4615;DHT22;2320;51.362;6.946;2023-06-26T08:24:04;32.50;99.90
4615;DHT22;2320;51.362;6.946;2023-06-26T08:26:29;31.50;99.90
4615;DHT22;2320;51.362;6.946;2023-06-26T08:28:55;30.60;99.90
4615;DHT22;2320;51.362;6.946;2023-06-26T08:31:20;29.90;99.90
4615;DHT22;2320;51.362;6.946;2023-06-26T08:33:46;29.30;99.90
4615;DHT22;2320;51.362;6.946;2023-06-26T08:36:11;29.00;99.90
4615;DHT22;2320;51.362;6.946;2023-06-26T08:38:37;28.90;99.90
4615;DHT22;2320;51.362;6.946;2023-06-26T08:41:05;28.40;99.90
4615;DHT22;2320;51.362;6.946;2023-06-26T08:43:31;28.50;99.90
4615;DHT22;2320;51.362;6.946;2023-06-26T08:45:57;28.50;99.90
4615;DHT22;2320;51.362;6.946;2023-06-26T08:48:22;29.30;99.90
4615;DHT22;2320;51.362;6.946;2023-06-26T08:50:48;30.00;99.90
4615;DHT22;2320;51.362;6.946;2023-06-26T08:53:18;30.70;99.90
4615;DHT22;2320;51.362;6.946;2023-06-26T08:55:46;30.10;99.90
4615;DHT22;2320;51.362;6.946;2023-06-26T08:58:12;29.70;99.90
4615;DHT22;2320;51.362;6.946;2023-06-26T09:00:38;29.90;99.90
4615;DHT22;2320;51.362;6.946;2023-06-26T09:03:04;30.90;99.90
4615;DHT22;2320;51.362;6.946;2023-06-26T09:05:30;31.40;99.90
4615;DHT22;2320;51.362;6.946;2023-06-26T09:07:58;30.90;99.90
4615;DHT22;2320;51.362;6.946;2023-06-26T09:10:24;30.00;99.90
4615;DHT22;2320;51.362;6.946;2023-06-26T09:12:49;29.60;99.90
4615;DHT22;2320;51.362;6.946;2023-06-26T09:15:15;29.60;99.90
4615;DHT22;2320;51.362;6.946;2023-06-26T09:17:42;29.40;99.90
4615;DHT22;2320;51.362;6.946;2023-06-26T09:20:08;28.30;99.90
4615;DHT22;2320;51.362;6.946;2023-06-26T09:22:36;27.50;99.90
4615;DHT22;2320;51.362;6.946;2023-06-26T09:25:02;27.70;99.90
4615;DHT22;2320;51.362;6.946;2023-06-26T09:27:27;28.90;99.90
4615;DHT22;2320;51.362;6.946;2023-06-26T09:29:53;29.90;99.90
4615;DHT22;2320;51.362;6.946;2023-06-26T09:32:18;30.60;99.90
4615;DHT22;2320;51.362;6.946;2023-06-26T09:34:44;30.90;99.90
4615;DHT22;2320;51.362;6.946;2023-06-26T09:37:12;30.10;99.90
4615;DHT22;2320;51.362;6.946;2023-06-26T09:39:39;29.50;99.90
4615;DHT22;2320;51.362;6.946;2023-06-26T09:42:04;29.00;99.90
4615;DHT22;2320;51.362;6.946;2023-06-26T09:44:32;29.00;99.90
4615;DHT22;2320;51.362;6.946;2023-06-26T09:46:58;29.50;99.90
4615;DHT22;2320;51.362;6.946;2023-06-26T09:49:23;29.70;99.90
4615;DHT22;2320;51.362;6.946;2023-06-26T09:51:49;29.70;99.90
4615;DHT22;2320;51.362;6.946;2023-06-26T09:54:16;30.20;99.90
4615;DHT22;2320;51.362;6.946;2023-06-26T09:56:42;30.90;99.90
4615;DHT22;2320;51.362;6.946;2023-06-26T09:59:07;31.80;99.90
4615;DHT22;2320;51.362;6.946;2023-06-26T10:01:33;31.60;99.90
4615;DHT22;2320;51.362;6.946;2023-06-26T10:03:58;30.60;99.90
4615;DHT22;2320;51.362;6.946;2023-06-26T10:06:28;29.60;99.90
4615;DHT22;2320;51.362;6.946;2023-06-26T10:08:54;28.60;99.90
4615;DHT22;2320;51.362;6.946;2023-06-26T10:11:21;28.60;99.90
4615;DHT22;2320;51.362;6.946;2023-06-26T10:13:47;29.70;99.90
4615;DHT22;2320;51.362;6.946;2023-06-26T10:16:16;30.80;99.90
4615;DHT22;2320;51.362;6.946;2023-06-26T10:18:43;31.50;99.90
4615;DHT22;2320;51.362;6.946;2023-06-26T10:21:09;31.10;99.90
4615;DHT22;2320;51.362;6.946;2023-06-26T10:23:35;30.30;99.90
4615;DHT22;2320;51.362;6.946;2023-06-26T10:26:01;29.50;99.90
4615;DHT22;2320;51.362;6.946;2023-06-26T10:28:28;29.20;99.90
4615;DHT22;2320;51.362;6.946;2023-06-26T10:30:55;28.70;99.90
4615;DHT22;2320;51.362;6.946;2023-06-26T10:33:21;28.30;99.90
4615;DHT22;2320;51.362;6.946;2023-06-26T10:35:47;28.10;99.90
4615;DHT22;2320;51.362;6.946;2023-06-26T10:38:12;27.80;99.90
4615;DHT22;2320;51.362;6.946;2023-06-26T10:40:45;28.60;99.90
4615;DHT22;2320;51.362;6.946;2023-06-26T10:43:11;28.60;99.90
4615;DHT22;2320;51.362;6.946;2023-06-26T10:45:37;28.50;99.90
4615;DHT22;2320;51.362;6.946;2023-06-26T10:48:07;28.30;99.90
4615;DHT22;2320;51.362;6.946;2023-06-26T10:50:33;28.10;99.90
4615;DHT22;2320;51.362;6.946;2023-06-26T10:55:48;28.60;99.90
4615;DHT22;2320;51.362;6.946;2023-06-26T11:01:19;31.40;99.90
4615;DHT22;2320;51.362;6.946;2023-06-26T11:06:13;32.50;96.60
4615;DHT22;2320;51.362;6.946;2023-06-26T11:08:48;32.80;95.60
4615;DHT22;2320;51.362;6.946;2023-06-26T11:11:14;33.10;94.30
4615;DHT22;2320;51.362;6.946;2023-06-26T11:13:40;32.10;94.20
4615;DHT22;2320;51.362;6.946;2023-06-26T11:16:06;30.70;94.30
4615;DHT22;2320;51.362;6.946;2023-06-26T11:18:32;30.20;96.80
4615;DHT22;2320;51.362;6.946;2023-06-26T11:23:32;30.20;97.50
4615;DHT22;2320;51.362;6.946;2023-06-26T11:25:57;29.50;96.80
4615;DHT22;2320;51.362;6.946;2023-06-26T11:31:30;30.60;97.70
4615;DHT22;2320;51.362;6.946;2023-06-26T11:33:56;31.30;96.10
4615;DHT22;2320;51.362;6.946;2023-06-26T11:36:25;31.70;95.60
4615;DHT22;2320;51.362;6.946;2023-06-26T11:38:58;31.80;94.40
4615;DHT22;2320;51.362;6.946;2023-06-26T11:41:25;30.70;94.30
4615;DHT22;2320;51.362;6.946;2023-06-26T11:43:51;30.10;94.80
4615;DHT22;2320;51.362;6.946;2023-06-26T11:46:17;29.60;95.50
4615;DHT22;2320;51.362;6.946;2023-06-26T11:48:43;29.60;95.00
4615;DHT22;2320;51.362;6.946;2023-06-26T11:51:09;29.40;93.90
4615;DHT22;2320;51.362;6.946;2023-06-26T11:53:40;29.70;93.10
4615;DHT22;2320;51.362;6.946;2023-06-26T11:56:08;29.80;92.70
4615;DHT22;2320;51.362;6.946;2023-06-26T11:58:33;29.30;93.00
4615;DHT22;2320;51.362;6.946;2023-06-26T12:00:59;28.80;92.90
4615;DHT22;2320;51.362;6.946;2023-06-26T12:03:24;28.50;92.70
4615;DHT22;2320;51.362;6.946;2023-06-26T12:05:50;28.30;92.60
4615;DHT22;2320;51.362;6.946;2023-06-26T12:08:17;28.30;93.20
4615;DHT22;2320;51.362;6.946;2023-06-26T12:10:44;28.60;92.80
4615;DHT22;2320;51.362;6.946;2023-06-26T12:13:10;28.70;92.20
4615;DHT22;2320;51.362;6.946;2023-06-26T12:15:35;28.50;92.00
4615;DHT22;2320;51.362;6.946;2023-06-26T12:18:07;28.10;92.20
4615;DHT22;2320;51.362;6.946;2023-06-26T12:20:32;28.00;92.80
4615;DHT22;2320;51.362;6.946;2023-06-26T12:22:58;27.80;93.30
4615;DHT22;2320;51.362;6.946;2023-06-26T12:25:23;27.70;92.50
4615;DHT22;2320;51.362;6.946;2023-06-26T12:27:49;27.50;92.30
4615;DHT22;2320;51.362;6.946;2023-06-26T12:30:15;27.50;91.90
4615;DHT22;2320;51.362;6.946;2023-06-26T12:32:43;27.60;91.50
4615;DHT22;2320;51.362;6.946;2023-06-26T12:35:09;27.90;90.70
4615;DHT22;2320;51.362;6.946;2023-06-26T12:37:38;27.70;90.60
4615;DHT22;2320;51.362;6.946;2023-06-26T12:40:15;27.90;90.90
4615;DHT22;2320;51.362;6.946;2023-06-26T12:42:42;28.10;91.30
4615;DHT22;2320;51.362;6.946;2023-06-26T12:45:11;28.30;90.20
4615;DHT22;2320;51.362;6.946;2023-06-26T12:47:36;28.20;89.20
4615;DHT22;2320;51.362;6.946;2023-06-26T12:50:06;28.00;89.80
4615;DHT22;2320;51.362;6.946;2023-06-26T12:52:32;28.00;89.60
4615;DHT22;2320;51.362;6.946;2023-06-26T12:54:58;27.90;89.70
4615;DHT22;2320;51.362;6.946;2023-06-26T12:57:23;27.80;90.30
4615;DHT22;2320;51.362;6.946;2023-06-26T12:59:49;27.60;90.70
4615;DHT22;2320;51.362;6.946;2023-06-26T13:02:14;27.60;90.50
4615;DHT22;2320;51.362;6.946;2023-06-26T13:04:40;27.60;89.50
4615;DHT22;2320;51.362;6.946;2023-06-26T13:07:06;27.40;88.30
4615;DHT22;2320;51.362;6.946;2023-06-26T13:09:32;27.50;88.70
4615;DHT22;2320;51.362;6.946;2023-06-26T13:11:58;27.40;89.20
4615;DHT22;2320;51.362;6.946;2023-06-26T13:14:24;27.40;88.40
4615;DHT22;2320;51.362;6.946;2023-06-26T13:16:49;27.30;87.80
4615;DHT22;2320;51.362;6.946;2023-06-26T13:19:15;27.20;87.60
4615;DHT22;2320;51.362;6.946;2023-06-26T13:21:40;27.30;87.10
4615;DHT22;2320;51.362;6.946;2023-06-26T13:24:07;27.30;86.80
4615;DHT22;2320;51.362;6.946;2023-06-26T13:26:32;27.10;86.80
4615;DHT22;2320;51.362;6.946;2023-06-26T13:28:58;27.10;85.20
4615;DHT22;2320;51.362;6.946;2023-06-26T13:31:23;27.00;85.30
4615;DHT22;2320;51.362;6.946;2023-06-26T13:33:49;27.00;85.20
4615;DHT22;2320;51.362;6.946;2023-06-26T13:36:15;26.90;85.30
4615;DHT22;2320;51.362;6.946;2023-06-26T13:38:41;26.80;85.80
4615;DHT22;2320;51.362;6.946;2023-06-26T13:41:06;26.90;86.20
4615;DHT22;2320;51.362;6.946;2023-06-26T13:43:32;27.00;87.50
4615;DHT22;2320;51.362;6.946;2023-06-26T13:45:58;27.20;86.40
4615;DHT22;2320;51.362;6.946;2023-06-26T13:48:23;27.20;87.00
4615;DHT22;2320;51.362;6.946;2023-06-26T13:50:52;27.20;87.90
4615;DHT22;2320;51.362;6.946;2023-06-26T13:53:18;27.10;86.80
4615;DHT22;2320;51.362;6.946;2023-06-26T13:55:43;27.10;86.30
4615;DHT22;2320;51.362;6.946;2023-06-26T13:58:09;27.20;87.30
4615;DHT22;2320;51.362;6.946;2023-06-26T14:00:35;27.30;87.10
4615;DHT22;2320;51.362;6.946;2023-06-26T14:03:04;27.10;85.90
4615;DHT22;2320;51.362;6.946;2023-06-26T14:05:34;27.10;86.60
4615;DHT22;2320;51.362;6.946;2023-06-26T14:08:01;27.20;86.80
4615;DHT22;2320;51.362;6.946;2023-06-26T14:10:27;27.20;86.30
4615;DHT22;2320;51.362;6.946;2023-06-26T14:12:53;27.20;86.30
4615;DHT22;2320;51.362;6.946;2023-06-26T14:15:18;27.30;86.50
4615;DHT22;2320;51.362;6.946;2023-06-26T14:17:44;27.30;85.00
4615;DHT22;2320;51.362;6.946;2023-06-26T14:20:09;27.30;85.00
4615;DHT22;2320;51.362;6.946;2023-06-26T14:22:38;27.30;86.60
4615;DHT22;2320;51.362;6.946;2023-06-26T14:25:04;27.20;84.60
4615;DHT22;2320;51.362;6.946;2023-06-26T14:27:29;26.90;84.70
4615;DHT22;2320;51.362;6.946;2023-06-26T14:29:55;26.90;84.70
4615;DHT22;2320;51.362;6.946;2023-06-26T14:32:20;26.80;83.80
4615;DHT22;2320;51.362;6.946;2023-06-26T14:34:46;26.80;85.00
4615;DHT22;2320;51.362;6.946;2023-06-26T14:37:11;26.80;82.80
4615;DHT22;2320;51.362;6.946;2023-06-26T14:39:37;26.80;82.60
4615;DHT22;2320;51.362;6.946;2023-06-26T14:42:04;26.80;83.90
4615;DHT22;2320;51.362;6.946;2023-06-26T14:44:29;27.00;83.90
4615;DHT22;2320;51.362;6.946;2023-06-26T14:46:55;27.10;84.20
4615;DHT22;2320;51.362;6.946;2023-06-26T14:49:21;27.30;83.60
4615;DHT22;2320;51.362;6.946;2023-06-26T14:51:46;27.20;83.70
4615;DHT22;2320;51.362;6.946;2023-06-26T14:54:11;27.20;83.90
4615;DHT22;2320;51.362;6.946;2023-06-26T14:56:37;27.00;82.80
4615;DHT22;2320;51.362;6.946;2023-06-26T14:59:02;26.80;83.50
4615;DHT22;2320;51.362;6.946;2023-06-26T15:01:28;26.70;84.20
4615;DHT22;2320;51.362;6.946;2023-06-26T15:03:55;26.70;84.70
4615;DHT22;2320;51.362;6.946;2023-06-26T15:06:20;26.70;84.60
4615;DHT22;2320;51.362;6.946;2023-06-26T15:08:46;26.70;84.10
4615;DHT22;2320;51.362;6.946;2023-06-26T15:11:11;26.80;84.60
4615;DHT22;2320;51.362;6.946;2023-06-26T15:13:37;26.80;85.40
4615;DHT22;2320;51.362;6.946;2023-06-26T15:16:03;26.70;85.90
4615;DHT22;2320;51.362;6.946;2023-06-26T15:18:28;26.60;85.30
4615;DHT22;2320;51.362;6.946;2023-06-26T15:20:54;26.40;84.70
4615;DHT22;2320;51.362;6.946;2023-06-26T15:23:19;26.40;85.60
4615;DHT22;2320;51.362;6.946;2023-06-26T15:25:45;26.30;87.10
4615;DHT22;2320;51.362;6.946;2023-06-26T15:28:10;26.40;82.70
4615;DHT22;2320;51.362;6.946;2023-06-26T15:30:36;26.40;84.00
4615;DHT22;2320;51.362;6.946;2023-06-26T15:33:01;26.30;80.90
4615;DHT22;2320;51.362;6.946;2023-06-26T15:35:27;26.30;90.60
4615;DHT22;2320;51.362;6.946;2023-06-26T15:37:53;26.50;85.30
4615;DHT22;2320;51.362;6.946;2023-06-26T15:40:19;26.60;86.20
4615;DHT22;2320;51.362;6.946;2023-06-26T15:42:45;26.60;85.70
4615;DHT22;2320;51.362;6.946;2023-06-26T15:45:11;26.70;85.90
4615;DHT22;2320;51.362;6.946;2023-06-26T15:47:37;26.50;85.20
4615;DHT22;2320;51.362;6.946;2023-06-26T15:50:02;26.40;84.40
4615;DHT22;2320;51.362;6.946;2023-06-26T15:52:28;26.50;83.40
4615;DHT22;2320;51.362;6.946;2023-06-26T15:54:53;26.50;83.10
4615;DHT22;2320;51.362;6.946;2023-06-26T15:57:19;26.30;85.60
4615;DHT22;2320;51.362;6.946;2023-06-26T15:59:44;26.30;86.10
4615;DHT22;2320;51.362;6.946;2023-06-26T16:02:10;26.20;86.90
4615;DHT22;2320;51.362;6.946;2023-06-26T16:04:35;26.10;87.60
4615;DHT22;2320;51.362;6.946;2023-06-26T16:07:01;26.00;88.00
4615;DHT22;2320;51.362;6.946;2023-06-26T16:09:26;26.00;90.10
4615;DHT22;2320;51.362;6.946;2023-06-26T16:11:52;26.10;89.10
4615;DHT22;2320;51.362;6.946;2023-06-26T16:14:17;26.00;87.70
4615;DHT22;2320;51.362;6.946;2023-06-26T16:16:43;25.90;89.60